Time;durP1;ratioP1;P1;durP2;ratioP2;P2;SDS_P1;SDS_P2;PMS_P1;PMS_P2;Temp;Humidity;BMP_temperature;BMP_pressure;BME280_temperature;BME280_humidity;BME280_pressure;Samples;Min_cycle;Max_cycle;Signal;HPM_P1;HPM_P2
2023/07/09 00:00:48;;;;;;;12.85;6.03;;;20.70;99.90;;;;;;5041834;28;20370;-79
2023/07/09 00:03:14;;;;;;;8.73;6.13;;;20.70;99.90;;;;;;5035292;28;20037;-78
2023/07/09 00:05:40;;;;;;;7.20;6.47;;;20.70;99.90;;;;;;5040803;28;20443;-79
2023/07/09 00:08:12;;;;;;;6.43;5.80;;;20.70;99.90;;;;;;5040333;28;20122;-79
2023/07/09 00:10:37;;;;;;;9.85;6.32;;;20.60;99.90;;;;;;5043631;28;20045;-79
2023/07/09 00:13:03;;;;;;;6.85;5.97;;;20.60;99.90;;;;;;5039054;28;20067;-78
2023/07/09 00:15:28;;;;;;;9.07;6.47;;;20.60;99.90;;;;;;5045238;28;20040;-79
2023/07/09 00:17:54;;;;;;;6.57;5.97;;;20.60;99.90;;;;;;5043621;28;20044;-79
2023/07/09 00:20:19;;;;;;;7.75;6.70;;;20.50;99.90;;;;;;5044582;28;20044;-78
2023/07/09 00:22:51;;;;;;;6.65;6.05;;;20.50;99.90;;;;;;5042303;28;20108;-78
2023/07/09 00:25:19;;;;;;;8.00;6.28;;;20.40;99.90;;;;;;5043056;28;20055;-78
2023/07/09 00:27:48;;;;;;;7.57;6.38;;;20.40;99.90;;;;;;5046112;28;20488;-79
2023/07/09 00:30:19;;;;;;;8.73;6.28;;;20.40;99.90;;;;;;5043028;28;20045;-78
2023/07/09 00:32:45;;;;;;;8.68;6.03;;;20.30;99.90;;;;;;5043694;28;20040;-79
2023/07/09 00:35:15;;;;;;;12.95;6.35;;;20.30;99.90;;;;;;5039647;28;20038;-78
2023/07/09 00:37:42;;;;;;;8.43;6.03;;;20.30;99.90;;;;;;5039798;28;20489;-79
2023/07/09 00:40:20;;;;;;;6.97;6.28;;;20.30;99.90;;;;;;5042373;28;20041;-79
2023/07/09 00:42:48;;;;;;;9.88;6.35;;;20.60;99.90;;;;;;5046239;28;20467;-79
2023/07/09 00:45:32;;;;;;;7.32;5.70;;;20.20;99.90;;;;;;5043027;28;20048;-79
2023/07/09 00:48:06;;;;;;;8.63;6.63;;;20.10;99.90;;;;;;5036721;28;20041;-78
2023/07/09 00:50:59;;;;;;;9.27;6.20;;;20.00;99.90;;;;;;5039796;28;20036;-79
2023/07/09 00:53:31;;;;;;;13.68;8.10;;;19.90;99.90;;;;;;5046525;28;20055;-78
2023/07/09 00:56:03;;;;;;;7.32;6.43;;;19.80;99.90;;;;;;5042958;28;20037;-79
2023/07/09 00:58:29;;;;;;;6.57;5.88;;;19.70;99.90;;;;;;5043075;28;20041;-79
2023/07/09 01:01:01;;;;;;;7.55;6.70;;;19.70;99.90;;;;;;5042493;28;20414;-79
2023/07/09 01:03:42;;;;;;;8.95;7.05;;;19.70;99.90;;;;;;5045604;28;20037;-79
2023/07/09 01:06:09;;;;;;;10.30;6.13;;;19.60;99.90;;;;;;5041045;28;20044;-78
2023/07/09 01:08:37;;;;;;;9.43;6.57;;;19.60;99.90;;;;;;5042150;28;20052;-78
2023/07/09 01:11:02;;;;;;;6.82;6.18;;;19.60;99.90;;;;;;5039992;28;20042;-79
2023/07/09 01:13:32;;;;;;;7.43;6.15;;;19.50;99.90;;;;;;5039809;28;20040;-79
2023/07/09 01:15:58;;;;;;;6.63;5.90;;;19.50;99.90;;;;;;5039511;28;20055;-79
2023/07/09 01:18:24;;;;;;;7.00;5.80;;;19.50;99.90;;;;;;5038773;28;20045;-79
2023/07/09 01:20:52;;;;;;;9.60;6.28;;;19.40;99.90;;;;;;5038009;28;20175;-79
2023/07/09 01:23:18;;;;;;;8.20;6.07;;;19.40;99.90;;;;;;5041209;28;20041;-79
2023/07/09 01:25:54;;;;;;;6.88;6.22;;;19.40;99.90;;;;;;5041221;28;20395;-79
2023/07/09 01:28:20;;;;;;;7.40;6.60;;;19.30;99.90;;;;;;5042271;28;20041;-78
2023/07/09 01:30:53;;;;;;;8.77;6.50;;;19.30;99.90;;;;;;5043370;28;20399;-79
2023/07/09 01:33:20;;;;;;;10.77;6.28;;;19.30;99.90;;;;;;5042044;28;20051;-79
2023/07/09 01:35:45;;;;;;;10.20;6.65;;;19.20;99.90;;;;;;5039675;28;20119;-79
2023/07/09 01:38:11;;;;;;;6.97;6.28;;;19.20;99.90;;;;;;5039345;28;20077;-79
2023/07/09 01:40:37;;;;;;;8.23;6.53;;;19.20;99.90;;;;;;5039986;28;20128;-79
2023/07/09 01:43:06;;;;;;;8.30;6.32;;;19.20;99.90;;;;;;5041526;28;20040;-78
2023/07/09 01:45:36;;;;;;;6.68;6.00;;;19.10;99.90;;;;;;5045574;28;20090;-79
2023/07/09 01:48:02;;;;;;;6.20;5.60;;;19.20;99.90;;;;;;5039234;28;20417;-78
2023/07/09 01:50:28;;;;;;;13.23;7.18;;;19.10;99.90;;;;;;5043194;28;20033;-78
2023/07/09 01:52:55;;;;;;;7.18;5.70;;;19.10;99.90;;;;;;5038025;28;20049;-79
2023/07/09 01:55:20;;;;;;;7.75;5.70;;;19.10;99.90;;;;;;5045704;28;20045;-79
2023/07/09 01:57:46;;;;;;;8.57;6.75;;;19.00;99.90;;;;;;5042802;28;20041;-78
2023/07/09 02:00:14;;;;;;;7.45;6.38;;;19.00;99.90;;;;;;5041021;28;20135;-79
2023/07/09 02:02:45;;;;;;;11.15;6.57;;;19.00;99.90;;;;;;5042235;28;20431;-80
2023/07/09 02:05:13;;;;;;;7.70;6.68;;;18.90;99.90;;;;;;5043459;28;20045;-81
2023/07/09 02:07:39;;;;;;;6.50;5.90;;;18.80;99.90;;;;;;5045465;28;20068;-78
2023/07/09 02:10:05;;;;;;;8.52;6.88;;;18.80;99.90;;;;;;5045187;28;20129;-79
2023/07/09 02:12:31;;;;;;;7.18;6.47;;;18.80;99.90;;;;;;5042674;28;20048;-78
2023/07/09 02:14:57;;;;;;;10.25;5.88;;;18.80;99.90;;;;;;5041760;28;20034;-79
2023/07/09 02:17:22;;;;;;;7.43;6.25;;;18.80;99.90;;;;;;5041178;28;20036;-79
2023/07/09 02:19:48;;;;;;;6.40;5.32;;;18.80;99.90;;;;;;5039858;28;20126;-78
2023/07/09 02:22:13;;;;;;;6.32;5.60;;;18.80;99.90;;;;;;5042105;28;20079;-79
2023/07/09 02:24:39;;;;;;;8.07;5.47;;;18.80;99.90;;;;;;5042509;28;20036;-79
2023/07/09 02:27:07;;;;;;;6.32;5.68;;;18.80;99.90;;;;;;5040556;28;20088;-79
2023/07/09 02:29:33;;;;;;;6.07;5.47;;;18.80;99.90;;;;;;5040204;28;20033;-79
2023/07/09 02:32:00;;;;;;;7.63;5.90;;;18.90;99.90;;;;;;5040915;28;20037;-79
2023/07/09 02:34:28;;;;;;;7.13;6.43;;;18.90;99.90;;;;;;5039279;28;20044;-78
2023/07/09 02:36:55;;;;;;;7.63;6.32;;;19.00;99.90;;;;;;5044535;28;20642;-78
2023/07/09 02:39:22;;;;;;;10.00;6.63;;;18.90;99.90;;;;;;5044000;28;20048;-79
2023/07/09 02:41:48;;;;;;;6.72;5.90;;;18.90;99.90;;;;;;5040919;28;20041;-79
2023/07/09 02:44:14;;;;;;;7.00;6.30;;;19.00;99.90;;;;;;5039923;28;20033;-81
2023/07/09 02:46:40;;;;;;;6.82;5.97;;;19.00;99.90;;;;;;5036470;28;20037;-79
2023/07/09 02:49:06;;;;;;;5.88;5.25;;;19.00;99.90;;;;;;5038516;28;20048;-79
2023/07/09 02:51:33;;;;;;;7.03;5.55;;;19.00;99.90;;;;;;5041838;28;20055;-79
2023/07/09 02:54:01;;;;;;;7.70;5.75;;;18.90;99.90;;;;;;5040189;28;20041;-78
2023/07/09 02:56:28;;;;;;;10.50;6.03;;;18.90;99.90;;;;;;5041896;28;20119;-79
2023/07/09 02:58:53;;;;;;;6.68;6.07;;;18.80;99.90;;;;;;5041341;28;20039;-80
2023/07/09 03:01:24;;;;;;;10.70;6.03;;;18.90;99.90;;;;;;5038623;28;20029;-79
2023/07/09 03:04:01;;;;;;;7.72;6.65;;;19.00;99.90;;;;;;5041512;28;20073;-79
2023/07/09 03:06:27;;;;;;;8.23;6.90;;;18.80;99.90;;;;;;5043985;28;20087;-79
2023/07/09 03:08:53;;;;;;;8.40;6.63;;;18.90;99.90;;;;;;5041599;28;20085;-80
2023/07/09 03:11:20;;;;;;;7.40;6.70;;;18.90;99.90;;;;;;5041424;28;20088;-79
2023/07/09 03:13:46;;;;;;;9.27;7.45;;;18.90;99.90;;;;;;5041760;28;20037;-79
2023/07/09 03:16:13;;;;;;;8.07;6.82;;;19.00;99.90;;;;;;5041983;28;20041;-79
2023/07/09 03:18:39;;;;;;;8.02;6.97;;;19.00;99.90;;;;;;5036105;28;20036;-79
2023/07/09 03:21:05;;;;;;;8.50;6.97;;;19.00;99.90;;;;;;5036522;28;20025;-78
2023/07/09 03:23:30;;;;;;;9.00;6.78;;;19.00;99.90;;;;;;5034129;28;20044;-78
2023/07/09 03:25:57;;;;;;;9.25;7.82;;;19.10;99.90;;;;;;5038784;28;20116;-78
2023/07/09 03:28:23;;;;;;;7.95;7.25;;;19.10;99.90;;;;;;5041015;28;20558;-79
2023/07/09 03:30:49;;;;;;;7.95;6.45;;;19.10;99.90;;;;;;5039754;28;20041;-79
2023/07/09 03:33:16;;;;;;;9.35;5.93;;;19.10;99.90;;;;;;5040582;28;20060;-78
2023/07/09 03:35:42;;;;;;;9.43;6.30;;;19.20;99.90;;;;;;5040316;28;20037;-78
2023/07/09 03:38:10;;;;;;;7.03;6.32;;;19.10;99.90;;;;;;5036591;28;20040;-78
2023/07/09 03:40:37;;;;;;;11.32;6.60;;;19.20;99.90;;;;;;5035812;28;20041;-79
2023/07/09 03:43:03;;;;;;;7.85;6.45;;;19.20;99.90;;;;;;5039648;28;20045;-79
2023/07/09 03:45:29;;;;;;;9.88;7.20;;;19.20;99.90;;;;;;5037635;28;20090;-78
2023/07/09 03:47:55;;;;;;;8.02;7.22;;;19.20;99.90;;;;;;5035701;28;20049;-79
2023/07/09 03:50:21;;;;;;;9.75;6.97;;;19.20;99.90;;;;;;5042979;28;20507;-80
2023/07/09 03:52:47;;;;;;;9.82;6.90;;;19.20;99.90;;;;;;5040110;28;20052;-79
2023/07/09 03:55:14;;;;;;;9.57;6.80;;;19.20;99.90;;;;;;5038695;28;20033;-79
2023/07/09 03:57:39;;;;;;;7.38;6.63;;;19.20;99.90;;;;;;5040397;28;20041;-79
2023/07/09 04:00:06;;;;;;;7.18;6.18;;;19.30;99.90;;;;;;5038862;28;20038;-78
2023/07/09 04:02:31;;;;;;;7.65;6.80;;;19.30;99.90;;;;;;5038562;28;20037;-78
2023/07/09 04:04:57;;;;;;;7.82;6.95;;;19.30;99.90;;;;;;5036832;28;20033;-78
2023/07/09 04:07:23;;;;;;;9.57;7.43;;;19.40;99.90;;;;;;5036577;28;20045;-80
2023/07/09 04:09:48;;;;;;;7.78;6.68;;;19.50;99.90;;;;;;5037091;28;20048;-79
2023/07/09 04:12:14;;;;;;;9.35;7.25;;;19.50;99.90;;;;;;5039013;28;21930;-78
2023/07/09 04:14:40;;;;;;;9.27;6.63;;;19.60;99.90;;;;;;5034766;28;20140;-78
2023/07/09 04:17:06;;;;;;;8.50;7.43;;;19.60;99.90;;;;;;5040504;28;20041;-79
2023/07/09 04:19:31;;;;;;;9.27;7.00;;;19.70;99.90;;;;;;5040347;28;20675;-80
2023/07/09 04:21:57;;;;;;;7.60;6.78;;;19.80;99.90;;;;;;5041498;28;20037;-79
2023/07/09 04:24:23;;;;;;;9.43;7.63;;;20.00;99.90;;;;;;5038580;28;20129;-79
2023/07/09 04:26:48;;;;;;;8.65;6.03;;;20.20;99.90;;;;;;5042098;28;20033;-79
2023/07/09 04:29:14;;;;;;;11.00;6.68;;;20.60;99.90;;;;;;5039132;28;20045;-78
2023/07/09 04:31:41;;;;;;;8.60;7.55;;;21.00;99.90;;;;;;5040075;28;20124;-79
2023/07/09 04:34:07;;;;;;;12.35;7.40;;;21.40;99.90;;;;;;5041548;28;20048;-78
2023/07/09 04:36:33;;;;;;;8.55;6.20;;;21.70;99.90;;;;;;5041782;28;20049;-78
2023/07/09 04:38:59;;;;;;;9.07;6.97;;;22.00;99.90;;;;;;5036974;28;20566;-79
2023/07/09 04:41:24;;;;;;;8.98;6.85;;;22.20;99.90;;;;;;5037452;28;20041;-79
2023/07/09 04:43:50;;;;;;;10.27;6.95;;;22.10;99.90;;;;;;5041203;28;20116;-78
2023/07/09 04:46:15;;;;;;;8.20;6.80;;;22.10;99.90;;;;;;5041019;28;20037;-79
2023/07/09 04:48:41;;;;;;;9.38;7.40;;;22.30;99.90;;;;;;5038805;28;20077;-80
2023/07/09 04:51:07;;;;;;;8.75;7.03;;;22.40;99.90;;;;;;5042391;28;20056;-81
2023/07/09 04:53:32;;;;;;;10.25;6.57;;;22.40;99.90;;;;;;5042464;28;20041;-79
2023/07/09 04:55:58;;;;;;;10.60;7.00;;;22.40;99.90;;;;;;5044133;28;20049;-79
2023/07/09 04:58:24;;;;;;;7.07;5.85;;;22.40;99.90;;;;;;5043183;28;20055;-80
2023/07/09 05:00:50;;;;;;;8.20;7.03;;;22.40;99.90;;;;;;5043742;28;20037;-79
2023/07/09 05:03:19;;;;;;;8.15;5.90;;;22.70;99.90;;;;;;5039782;28;20033;-77
2023/07/09 05:05:46;;;;;;;8.80;7.30;;;23.20;99.90;;;;;;5044458;28;20041;-79
2023/07/09 05:08:13;;;;;;;8.65;6.82;;;23.30;99.90;;;;;;5041158;28;20031;-80
2023/07/09 05:10:46;;;;;;;9.90;6.72;;;23.50;99.90;;;;;;5043027;28;20033;-80
2023/07/09 05:13:12;;;;;;;7.30;6.60;;;23.90;99.90;;;;;;5043513;28;20036;-80
2023/07/09 05:15:44;;;;;;;9.00;6.85;;;23.60;99.90;;;;;;5043434;28;20043;-79
2023/07/09 05:18:10;;;;;;;9.35;7.38;;;23.50;99.90;;;;;;5039118;28;20037;-79
2023/07/09 05:20:36;;;;;;;9.68;6.78;;;23.40;99.90;;;;;;5040225;28;20037;-78
2023/07/09 05:23:02;;;;;;;11.10;6.93;;;23.30;99.90;;;;;;5040229;28;20025;-79
2023/07/09 05:25:27;;;;;;;12.75;7.00;;;23.20;99.90;;;;;;5040665;28;20052;-80
2023/07/09 05:27:53;;;;;;;7.50;6.25;;;23.30;99.90;;;;;;5039171;28;20045;-79
2023/07/09 05:30:19;;;;;;;9.68;7.05;;;23.70;99.90;;;;;;5038468;28;20136;-79
2023/07/09 05:32:46;;;;;;;10.88;7.00;;;23.80;99.90;;;;;;5036400;28;20553;-78
2023/07/09 05:35:11;;;;;;;12.40;6.55;;;23.80;99.90;;;;;;5038510;28;20090;-79
2023/07/09 05:37:37;;;;;;;7.63;6.20;;;23.70;99.90;;;;;;5042091;28;20044;-80
2023/07/09 05:40:07;;;;;;;9.30;6.50;;;23.70;99.90;;;;;;5038105;28;20033;-78
2023/07/09 05:42:33;;;;;;;7.82;5.88;;;23.70;99.90;;;;;;5039699;28;20069;-79
2023/07/09 05:44:59;;;;;;;8.73;6.00;;;23.80;99.90;;;;;;5042653;28;20075;-79
2023/07/09 05:47:25;;;;;;;14.70;7.40;;;23.90;99.90;;;;;;5041284;28;20681;-78
2023/07/09 05:49:51;;;;;;;10.98;6.88;;;23.80;99.90;;;;;;5040614;28;20036;-79
2023/07/09 05:52:19;;;;;;;9.60;7.25;;;23.80;99.90;;;;;;5039848;28;20107;-78
2023/07/09 05:54:44;;;;;;;8.70;7.80;;;23.70;99.90;;;;;;5041095;28;20041;-78
2023/07/09 05:57:11;;;;;;;13.95;7.00;;;23.70;99.90;;;;;;5040609;28;20092;-78
2023/07/09 05:59:37;;;;;;;18.20;7.43;;;23.70;99.90;;;;;;5042898;28;20044;-80
2023/07/09 06:02:03;;;;;;;12.15;7.78;;;23.80;99.90;;;;;;5043185;28;20560;-79
2023/07/09 06:04:30;;;;;;;22.95;8.38;;;23.90;99.90;;;;;;5039475;28;20045;-77
2023/07/09 06:06:56;;;;;;;17.25;8.02;;;24.00;99.90;;;;;;5037827;28;20043;-78
2023/07/09 06:09:22;;;;;;;12.93;7.57;;;24.10;99.90;;;;;;5044333;28;20579;-80
2023/07/09 06:11:48;;;;;;;18.45;9.10;;;24.20;99.90;;;;;;5041521;28;20120;-80
2023/07/09 06:14:13;;;;;;;15.95;9.90;;;24.30;99.90;;;;;;5039827;28;20096;-79
2023/07/09 06:16:39;;;;;;;12.35;8.07;;;24.50;99.90;;;;;;5040061;28;20036;-79
2023/07/09 06:19:04;;;;;;;15.90;8.32;;;24.70;99.90;;;;;;5042052;28;21057;-79
2023/07/09 06:21:30;;;;;;;12.38;8.18;;;24.80;99.90;;;;;;5041931;28;20116;-79
2023/07/09 06:23:55;;;;;;;10.05;8.38;;;25.00;99.90;;;;;;5038599;28;20611;-79
2023/07/09 06:26:21;;;;;;;10.77;8.95;;;25.10;99.90;;;;;;5042863;28;20555;-79
2023/07/09 06:28:46;;;;;;;11.40;8.80;;;25.30;99.90;;;;;;5037593;28;20117;-79
2023/07/09 06:31:12;;;;;;;9.15;8.20;;;25.40;99.90;;;;;;5039578;28;20073;-79
2023/07/09 06:33:38;;;;;;;9.43;8.48;;;25.60;99.90;;;;;;5042548;28;20120;-79
2023/07/09 06:36:04;;;;;;;16.77;9.18;;;25.80;99.90;;;;;;5039799;28;20049;-80
2023/07/09 06:38:30;;;;;;;13.95;9.65;;;26.00;99.90;;;;;;5036029;28;20087;-79
2023/07/09 06:40:57;;;;;;;18.77;10.00;;;26.30;99.90;;;;;;5038083;28;20049;-79
2023/07/09 06:43:24;;;;;;;16.85;10.25;;;26.60;99.90;;;;;;5037929;28;20053;-79
2023/07/09 06:45:50;;;;;;;16.20;9.13;;;26.70;99.90;;;;;;5039845;28;20407;-79
2023/07/09 06:48:16;;;;;;;12.93;9.82;;;26.80;99.90;;;;;;5038596;28;20578;-80
2023/07/09 06:50:41;;;;;;;12.98;9.75;;;26.90;99.90;;;;;;5040214;28;20040;-79
2023/07/09 06:53:07;;;;;;;21.50;10.85;;;26.90;99.90;;;;;;5024211;28;20037;-79
2023/07/09 06:55:33;;;;;;;16.45;10.70;;;27.00;99.90;;;;;;5038501;28;20124;-79
2023/07/09 06:57:59;;;;;;;14.95;9.90;;;27.10;99.90;;;;;;5037859;28;20387;-80
2023/07/09 07:00:24;;;;;;;15.93;9.60;;;27.30;99.90;;;;;;5042190;28;20037;-79
2023/07/09 07:02:50;;;;;;;14.18;9.57;;;27.60;99.90;;;;;;5039587;28;20033;-81
2023/07/09 07:05:17;;;;;;;12.35;10.27;;;27.70;99.90;;;;;;5038604;28;20073;-79
2023/07/09 07:07:44;;;;;;;18.52;10.30;;;27.90;99.90;;;;;;5040478;28;20079;-78
2023/07/09 07:10:10;;;;;;;11.98;9.75;;;28.10;99.90;;;;;;5039938;28;20666;-79
2023/07/09 07:12:46;;;;;;;17.25;9.80;;;28.20;99.90;;;;;;5034979;28;20990;-79
2023/07/09 07:15:15;;;;;;;10.85;9.07;;;28.30;99.90;;;;;;5039711;28;20500;-80
2023/07/09 07:17:41;;;;;;;11.50;8.68;;;28.30;99.90;;;;;;5031205;28;20099;-80
2023/07/09 07:20:09;;;;;;;10.13;8.82;;;28.40;99.90;;;;;;5039865;28;20048;-79
2023/07/09 07:22:34;;;;;;;12.48;8.98;;;28.40;99.90;;;;;;5038888;28;20041;-79
2023/07/09 07:25:00;;;;;;;10.20;7.57;;;28.50;99.90;;;;;;5037140;28;20112;-80
2023/07/09 07:27:26;;;;;;;11.02;7.95;;;28.60;99.90;;;;;;5040150;28;20053;-79
2023/07/09 07:29:52;;;;;;;13.88;7.80;;;28.70;99.90;;;;;;5043822;28;20053;-79
2023/07/09 07:32:17;;;;;;;7.80;7.03;;;28.80;99.90;;;;;;5037820;28;20561;-79
2023/07/09 07:34:43;;;;;;;10.18;7.32;;;29.00;99.90;;;;;;5038486;28;20091;-78
2023/07/09 07:37:08;;;;;;;9.05;8.10;;;29.10;99.90;;;;;;5037512;28;20376;-78
2023/07/09 07:39:34;;;;;;;9.43;8.18;;;29.20;99.90;;;;;;5036030;28;20048;-79
2023/07/09 07:42:00;;;;;;;10.70;8.05;;;29.30;99.90;;;;;;5039669;28;20086;-78
2023/07/09 07:44:25;;;;;;;10.80;7.82;;;29.40;99.90;;;;;;5039981;28;20044;-78
2023/07/09 07:46:51;;;;;;;11.25;8.25;;;29.50;99.90;;;;;;5021016;28;20045;-79
2023/07/09 07:49:17;;;;;;;10.40;7.38;;;29.70;99.90;;;;;;5038960;28;20042;-78
2023/07/09 07:51:44;;;;;;;8.45;7.63;;;29.90;99.90;;;;;;5035808;28;20511;-78
2023/07/09 07:54:10;;;;;;;10.50;7.13;;;30.10;99.90;;;;;;5033940;28;20041;-78
2023/07/09 07:56:36;;;;;;;7.57;6.57;;;30.20;99.60;;;;;;5051678;28;20059;-79
2023/07/09 07:59:02;;;;;;;10.93;7.32;;;30.30;99.80;;;;;;5032803;28;20139;-79
2023/07/09 08:01:28;;;;;;;12.60;7.45;;;30.40;99.80;;;;;;5039111;28;20037;-80
2023/07/09 08:04:08;;;;;;;6.93;6.28;;;30.50;99.70;;;;;;5036592;28;20049;-79
2023/07/09 08:06:40;;;;;;;10.10;7.13;;;30.50;99.90;;;;;;5021492;28;20052;-79
2023/07/09 08:09:05;;;;;;;7.95;7.10;;;30.60;99.80;;;;;;5035653;28;20057;-80
2023/07/09 08:11:32;;;;;;;11.43;6.88;;;30.70;99.30;;;;;;5039467;28;20110;-79
2023/07/09 08:13:58;;;;;;;8.85;7.35;;;30.80;98.90;;;;;;5036267;28;20092;-80
2023/07/09 08:16:23;;;;;;;10.20;7.10;;;30.80;98.70;;;;;;5035736;28;20080;-80
2023/07/09 08:18:51;;;;;;;8.63;7.07;;;30.70;99.00;;;;;;5033140;28;20412;-80
2023/07/09 08:21:17;;;;;;;10.00;6.65;;;30.70;99.00;;;;;;5034119;28;20414;-80
2023/07/09 08:23:43;;;;;;;11.38;6.93;;;30.50;98.60;;;;;;5037829;28;20062;-79
2023/07/09 08:26:09;;;;;;;9.35;6.82;;;30.70;98.50;;;;;;5043166;28;20087;-81
2023/07/09 08:28:35;;;;;;;11.18;7.00;;;30.90;99.00;;;;;;5038446;28;20041;-81
2023/07/09 08:31:00;;;;;;;8.18;6.20;;;31.00;98.70;;;;;;5042973;28;20053;-81
2023/07/09 08:33:26;;;;;;;12.98;6.32;;;31.10;98.60;;;;;;5037780;28;20076;-80
2023/07/09 08:35:53;;;;;;;9.25;5.93;;;31.30;98.10;;;;;;5040048;28;20057;-79
2023/07/09 08:38:19;;;;;;;14.02;6.35;;;31.40;97.80;;;;;;5037845;28;20049;-80
2023/07/09 08:41:27;;;;;;;10.45;7.95;;;31.40;97.30;;;;;;5044063;28;20055;-79
2023/07/09 08:44:12;;;;;;;10.27;6.18;;;31.50;97.00;;;;;;5020117;28;20049;-79
2023/07/09 08:46:59;;;;;;;6.72;6.10;;;31.50;98.20;;;;;;5039123;28;20049;-80
2023/07/09 08:49:46;;;;;;;13.70;6.53;;;31.60;96.70;;;;;;5042903;28;20112;-80
2023/07/09 08:52:28;;;;;;;6.15;5.40;;;31.60;96.90;;;;;;5037359;28;20037;-80
2023/07/09 08:54:56;;;;;;;13.98;6.18;;;31.70;97.10;;;;;;5040666;28;20100;-80
2023/07/09 08:57:35;;;;;;;8.15;6.53;;;31.70;97.00;;;;;;5046619;28;21757;-80
2023/07/09 09:00:13;;;;;;;9.18;7.10;;;31.70;96.30;;;;;;5043080;28;20043;-80
2023/07/09 09:03:08;;;;;;;8.48;5.40;;;31.20;96.20;;;;;;5040729;28;20037;-80
2023/07/09 09:05:37;;;;;;;;;;;31.20;96.90;;;;;;5040785;28;20053;-79
2023/07/09 09:08:13;;;;;;;12.15;5.38;;;31.40;96.50;;;;;;5042071;28;20008;-80
2023/07/09 09:10:46;;;;;;;7.82;5.82;;;31.50;97.00;;;;;;5042146;28;20099;-80
2023/07/09 09:13:14;;;;;;;8.13;6.05;;;31.70;97.00;;;;;;5043384;28;20037;-80
2023/07/09 09:15:46;;;;;;;17.13;6.18;;;32.00;97.00;;;;;;5042242;28;20029;-81
2023/07/09 09:18:22;;;;;;;12.63;5.35;;;32.10;96.30;;;;;;5036912;28;20037;-80
2023/07/09 09:20:56;;;;;;;10.57;5.70;;;32.20;96.60;;;;;;5039700;28;20519;-80
2023/07/09 09:23:25;;;;;;;11.07;6.65;;;32.30;95.40;;;;;;5039918;28;20069;-80
2023/07/09 09:25:56;;;;;;;5.97;5.30;;;32.30;95.60;;;;;;5042519;28;20039;-80
2023/07/09 09:28:22;;;;;;;13.38;5.97;;;32.40;96.20;;;;;;5039909;28;20060;-79
2023/07/09 09:30:48;;;;;;;8.60;5.82;;;32.40;95.90;;;;;;5038518;28;20052;-79
2023/07/09 09:33:17;;;;;;;11.00;5.55;;;32.50;95.90;;;;;;5041819;28;20116;-80
2023/07/09 09:35:44;;;;;;;8.10;5.75;;;32.60;95.60;;;;;;5039197;28;20404;-79
2023/07/09 09:38:12;;;;;;;5.60;5.07;;;32.60;95.30;;;;;;5037417;28;20059;-80
2023/07/09 09:40:38;;;;;;;11.32;6.25;;;32.70;95.20;;;;;;5041626;28;20159;-79
2023/07/09 09:43:13;;;;;;;9.52;4.85;;;32.60;95.40;;;;;;5040840;28;20033;-80
2023/07/09 09:45:39;;;;;;;7.93;5.78;;;32.70;96.40;;;;;;5037104;28;20097;-80
2023/07/09 09:48:14;;;;;;;10.50;5.80;;;32.60;95.60;;;;;;5037513;28;20167;-80
2023/07/09 09:50:41;;;;;;;10.98;5.97;;;32.60;95.40;;;;;;5037723;28;20504;-79
2023/07/09 09:53:08;;;;;;;8.10;5.65;;;32.70;94.90;;;;;;5039147;28;20495;-79
2023/07/09 09:55:34;;;;;;;7.55;5.30;;;32.70;94.90;;;;;;5044634;28;20100;-80
2023/07/09 09:58:02;;;;;;;7.00;5.20;;;32.80;94.70;;;;;;5034392;28;20373;-79
2023/07/09 10:00:33;;;;;;;8.23;5.40;;;33.00;95.50;;;;;;5042977;28;20068;-78
2023/07/09 10:03:01;;;;;;;8.65;5.20;;;33.00;94.50;;;;;;5042841;28;20041;-79
2023/07/09 10:05:45;;;;;;;7.20;5.20;;;33.00;94.60;;;;;;5041633;28;20048;-79
2023/07/09 10:08:22;;;;;;;8.80;5.80;;;33.00;93.70;;;;;;5038098;28;20095;-80
2023/07/09 10:10:51;;;;;;;12.55;5.80;;;33.00;93.80;;;;;;5038408;28;20041;-80
2023/07/09 10:13:30;;;;;;;7.43;5.78;;;32.90;93.70;;;;;;5042896;28;20087;-81
2023/07/09 10:16:10;;;;;;;7.18;5.10;;;32.40;93.70;;;;;;5043716;28;20488;-82
2023/07/09 10:19:04;;;;;;;6.90;4.65;;;32.40;94.00;;;;;;5041908;28;20044;-80
2023/07/09 10:21:36;;;;;;;9.27;5.45;;;32.60;94.70;;;;;;5038680;28;20145;-80
2023/07/09 10:24:37;;;;;;;10.32;4.80;;;32.60;94.30;;;;;;5045233;28;20542;-80
2023/07/09 10:27:11;;;;;;;10.80;5.15;;;32.60;94.10;;;;;;5040243;28;20108;-81
2023/07/09 10:30:17;;;;;;;6.18;4.63;;;32.60;94.50;;;;;;5042966;28;20048;-79
2023/07/09 10:32:50;;;;;;;9.07;5.40;;;32.50;94.30;;;;;;5040201;28;20104;-80
2023/07/09 10:35:27;;;;;;;9.10;5.05;;;32.40;93.90;;;;;;5039569;28;20052;-81
2023/07/09 10:38:01;;;;;;;8.45;5.35;;;32.50;93.70;;;;;;5036677;28;20043;-80
2023/07/09 10:40:49;;;;;;;10.10;5.72;;;32.10;93.80;;;;;;5044624;28;20259;-79
2023/07/09 10:43:30;;;;;;;7.50;5.25;;;31.70;93.50;;;;;;5038469;28;20102;-79
2023/07/09 10:45:59;;;;;;;6.95;5.07;;;31.70;94.50;;;;;;5042478;28;20666;-80
2023/07/09 10:48:34;;;;;;;8.43;5.10;;;31.70;94.90;;;;;;5043564;28;20095;-80
2023/07/09 10:51:02;;;;;;;8.45;5.20;;;31.80;94.40;;;;;;5039759;28;20470;-80
2023/07/09 10:53:48;;;;;;;5.70;5.05;;;31.80;94.00;;;;;;5041434;28;20507;-80
2023/07/09 10:56:37;;;;;;;9.82;5.65;;;32.10;93.30;;;;;;5040250;28;20705;-80
2023/07/09 10:59:37;;;;;;;10.50;4.88;;;32.30;94.00;;;;;;5035255;28;20055;-78
2023/07/09 11:02:16;;;;;;;7.72;4.95;;;32.50;94.00;;;;;;5036441;28;20048;-77
2023/07/09 11:04:51;;;;;;;5.95;5.35;;;32.80;94.10;;;;;;5036899;28;20041;-79
2023/07/09 11:07:23;;;;;;;11.25;5.60;;;32.50;92.90;;;;;;5036699;28;20064;-78
2023/07/09 11:09:52;;;;;;;7.90;5.53;;;32.30;93.30;;;;;;5037786;28;20091;-80
2023/07/09 11:12:24;;;;;;;9.60;5.32;;;32.50;95.20;;;;;;5039520;28;20486;-78
2023/07/09 11:14:54;;;;;;;5.60;4.70;;;32.50;94.70;;;;;;5036121;28;20045;-79
2023/07/09 11:17:22;;;;;;;8.73;5.68;;;32.60;94.50;;;;;;5037415;28;20438;-79
2023/07/09 11:19:53;;;;;;;11.35;5.93;;;32.60;94.00;;;;;;5037434;28;20037;-79
2023/07/09 11:22:40;;;;;;;10.88;5.82;;;32.70;94.10;;;;;;5038789;28;20092;-79
2023/07/09 11:25:14;;;;;;;8.30;5.88;;;32.60;94.30;;;;;;5036744;28;20041;-79
2023/07/09 11:27:57;;;;;;;9.68;5.43;;;32.50;95.00;;;;;;5034941;28;20110;-79
2023/07/09 11:30:26;;;;;;;10.40;5.18;;;32.30;94.80;;;;;;5040643;28;20049;-79
2023/07/09 11:32:58;;;;;;;8.68;5.15;;;32.30;95.10;;;;;;5036600;28;20099;-79
2023/07/09 11:35:26;;;;;;;9.80;5.50;;;32.20;95.40;;;;;;5038544;28;20542;-78
2023/07/09 11:37:53;;;;;;;5.65;5.15;;;32.40;95.60;;;;;;5035746;28;20213;-79
2023/07/09 11:40:20;;;;;;;10.80;5.43;;;32.30;95.00;;;;;;5038500;28;20045;-78
2023/07/09 11:42:54;;;;;;;5.80;5.00;;;32.40;96.00;;;;;;5035722;28;20522;-78
2023/07/09 11:45:28;;;;;;;7.18;4.97;;;32.50;94.40;;;;;;5033532;28;20116;-78
2023/07/09 11:48:23;;;;;;;10.85;5.13;;;32.60;94.10;;;;;;5034287;28;20129;-79
2023/07/09 11:50:51;;;;;;;8.20;4.63;;;32.70;95.00;;;;;;5035383;28;20073;-78
2023/07/09 11:53:40;;;;;;;9.40;4.72;;;33.00;94.50;;;;;;5034933;28;20064;-79
2023/07/09 11:56:08;;;;;;;8.30;4.28;;;33.20;94.80;;;;;;5043258;28;20089;-78
2023/07/09 11:58:33;;;;;;;6.57;4.57;;;33.40;93.70;;;;;;5035073;28;20705;-79
2023/07/09 12:01:01;;;;;;;7.95;4.47;;;33.40;93.40;;;;;;5037526;28;20122;-79
2023/07/09 12:03:34;;;;;;;7.38;4.60;;;33.60;93.70;;;;;;5039649;28;20526;-79
2023/07/09 12:06:17;;;;;;;5.60;4.82;;;33.60;93.80;;;;;;5040137;28;20048;-78
2023/07/09 12:08:46;;;;;;;9.23;4.45;;;33.50;92.00;;;;;;5038957;28;20041;-78
2023/07/09 12:11:43;;;;;;;7.82;4.68;;;33.50;92.40;;;;;;5040731;28;20098;-78
2023/07/09 12:14:13;;;;;;;9.20;4.60;;;33.60;93.50;;;;;;5026134;28;20045;-78
2023/07/09 12:16:45;;;;;;;8.60;4.63;;;33.60;92.70;;;;;;5034526;28;20114;-78
2023/07/09 12:19:20;;;;;;;6.82;4.60;;;33.60;93.10;;;;;;5037554;28;20043;-78
2023/07/09 12:21:53;;;;;;;6.28;4.47;;;33.60;92.70;;;;;;5036738;28;20655;-79
2023/07/09 12:24:27;;;;;;;6.95;4.10;;;33.30;92.10;;;;;;5037439;28;20052;-80
2023/07/09 12:26:55;;;;;;;5.80;4.45;;;33.00;92.60;;;;;;5037584;28;20037;-79
2023/07/09 12:29:28;;;;;;;5.93;4.35;;;33.20;93.00;;;;;;5040705;28;20072;-79
2023/07/09 12:31:57;;;;;;;6.60;4.22;;;33.20;93.30;;;;;;5041964;28;20048;-78
2023/07/09 12:34:24;;;;;;;6.43;3.75;;;33.20;93.40;;;;;;5038370;28;20098;-78
2023/07/09 12:36:52;;;;;;;5.72;4.20;;;32.90;91.90;;;;;;5035799;28;20049;-78
2023/07/09 12:39:24;;;;;;;5.50;4.30;;;33.00;92.60;;;;;;5034253;28;20439;-78
2023/07/09 12:41:55;;;;;;;9.23;4.43;;;33.00;93.40;;;;;;5039109;28;20033;-79
2023/07/09 12:44:22;;;;;;;4.65;3.58;;;33.00;92.30;;;;;;5035958;28;20060;-79
2023/07/09 12:46:49;;;;;;;4.10;3.67;;;33.00;92.20;;;;;;5042021;28;20044;-78
2023/07/09 12:49:39;;;;;;;4.68;3.90;;;33.00;92.10;;;;;;5040756;28;20047;-78
2023/07/09 12:52:19;;;;;;;7.82;4.28;;;33.00;92.30;;;;;;5042320;28;20491;-78
2023/07/09 12:55:01;;;;;;;9.57;3.75;;;32.90;92.00;;;;;;5038233;28;20472;-78